Northfield, CT (06778)

4:27 PM EDT on August 22, 2017 (GMT -0400)
Judson St KENLUVSLUCY | | Change Station

Elev 472 ft 41.68 °N, 73.07 °W | Updated 0 second ago

Partly Cloudy
Partly Cloudy
86.0 °F
Feels Like 95 °F
N
3.4
Wind Variable Wind from SSW
Gusts 4.9 mph

Today
High -- | Low -- °F
--% Chance of Precip.
Yesterday
High -- | Low -- °F
Precip. -- in
Pressure 29.89 in
Visibility 7.0 miles
Clouds Scattered Clouds 3500 ft
Heat Index 95 °F
Dew Point 75 °F
Humidity 70%
Rainfall 0.00 in
Snow Depth Not available.
6:08 AM 7:41 PM
New Moon, 2% visible
METAR KOXC 221951Z 18011G17KT 7SM SCT035 29/23 A2987 RMK AO2 SLP120 T02940233
Pressure 29.89 in
Visibility 7.0 miles
Clouds Scattered Clouds 3500 ft
Heat Index 95 °F
Dew Point 75 °F
Humidity 70%
Rainfall 0.00 in
Snow Depth Not available.
6:08 AM 7:41 PM
New Moon, 2% visible
METAR KOXC 221951Z 18011G17KT 7SM SCT035 29/23 A2987 RMK AO2 SLP120 T02940233

Get Your Daily Forecast Email!

Thanks for signing up!

Be on the lookout for a verification email in your inbox.

You'll start receiving severe weather alerts in your inbox..

×

10-Day Weather Forecast

Almanac

Astronomy

Aug. 22, 2017 Rise Set
Actual Time
Civil Twilight
Nautical Twilight
Astronomical Twilight
Moon
Length of Visible Light
Length of Day
Tomorrow will be .
, % of the Moon is Illuminated

Today's Extremes

State Highs State Lows

Community

WunderPhotos

Category 6

Welcome to Category 6. This is the collective home for Weather Underground's featured writeups by Dr. Jeff Masters (right), Bob Henson (left), Chris Burt, and other regular contributors.

Nearby

Air Quality

  Air Quality AQ Index Pollutant
Not available.

Snow Depth

Station Depth Elevation

Earthquake Activity

City Distance Mag. Time & Date
Minimum magnitude displayed is 2.5.

Coastal Water Temperatures

Place Temperature

Stations

Nearby Weather Stations

Station Location Temp. Windchill Dew Point Humidity Wind Precip. Elev Updated Type
                   

Watches & Warnings

Severe Thunderstorm Watch
Issued: 4:24 PM EDT Aug. 22, 2017 – National Weather Service

Severe Thunderstorm Watch 463 remains in effect until 1200 am EDT
for the following locations


CT
. Connecticut counties included are

Litchfield




Air Quality Alert
Issued: 2:30 PM EDT Aug. 21, 2017 – National Weather Service

... Air quality alert is in effect from 12 PM Tuesday until 10 PM
Tuesday...

The Connecticut department of energy and environmental
protection has issued an air quality action day for the following
counties...

Northern Litchfield... southern Litchfield.

An air quality action day means that ozone within the region may
approach or exceed unhealthy standards, especially for sensitive
groups. For additional information... please visit the Connecticut
department of environmental protection website at http://www.CT.
Gov/deep/aqi

Snd